createdAt,value
2022-12-25T00:00:52.496Z,28.35
2022-12-25T00:02:57.680Z,27.25
2022-12-25T00:05:02.494Z,26.10
2022-12-25T00:07:07.371Z,24.77
2022-12-25T00:09:14.716Z,30.48
2022-12-25T00:11:21.389Z,25.00
2022-12-25T00:13:26.078Z,28.73
2022-12-25T00:15:30.883Z,30.85
2022-12-25T00:17:35.668Z,29.90
2022-12-25T00:19:40.297Z,28.48
2022-12-25T00:21:45.062Z,32.08
2022-12-25T00:23:49.897Z,31.77
2022-12-25T00:25:57.397Z,34.83
2022-12-25T00:28:02.115Z,35.75
2022-12-25T00:30:07.886Z,31.08
2022-12-25T00:32:12.669Z,27.48
2022-12-25T00:34:17.342Z,24.25
2022-12-25T00:36:24.679Z,26.00
2022-12-25T00:38:30.057Z,25.38
2022-12-25T00:40:35.000Z,24.98
2022-12-25T00:42:42.326Z,27.67
2022-12-25T00:44:46.889Z,25.70
2022-12-25T00:46:51.769Z,29.33
2022-12-25T00:48:56.545Z,24.30
2022-12-25T00:51:02.934Z,27.73
2022-12-25T00:53:08.015Z,23.45
2022-12-25T00:55:13.124Z,27.20
2022-12-25T00:57:18.228Z,27.98
2022-12-25T00:59:25.559Z,30.27
2022-12-25T01:01:30.813Z,26.20
2022-12-25T01:03:35.555Z,26.70
2022-12-25T01:05:40.302Z,25.20
2022-12-25T01:07:44.990Z,24.75
2022-12-25T01:10:02.440Z,26.60
2022-12-25T01:12:07.313Z,28.95
2022-12-25T01:14:14.528Z,26.88
2022-12-25T01:16:21.935Z,28.92
2022-12-25T01:18:27.654Z,30.58
2022-12-25T01:20:32.286Z,24.45
2022-12-25T01:22:34.318Z,24.52
2022-12-25T01:24:38.924Z,30.58
2022-12-25T01:26:43.756Z,26.13
2022-12-25T01:28:48.882Z,29.73
2022-12-25T01:30:53.541Z,28.65
2022-12-25T01:33:00.921Z,27.00
2022-12-25T01:35:05.755Z,27.85
2022-12-25T01:37:10.368Z,29.13
2022-12-25T01:39:15.054Z,28.65
2022-12-25T01:41:22.183Z,25.33
2022-12-25T01:43:28.263Z,31.08
2022-12-25T01:45:41.610Z,26.15
2022-12-25T01:47:46.387Z,28.42
2022-12-25T01:49:53.863Z,29.70
2022-12-25T01:52:01.080Z,26.23
2022-12-25T01:54:08.783Z,27.48
2022-12-25T01:56:13.755Z,32.78
2022-12-25T01:58:19.407Z,27.60
2022-12-25T02:00:24.518Z,31.88
2022-12-25T02:02:30.690Z,27.35
2022-12-25T02:04:41.523Z,29.77
2022-12-25T02:06:49.750Z,28.98
2022-12-25T02:08:54.695Z,28.45
2022-12-25T02:10:59.578Z,30.08
2022-12-25T02:13:04.901Z,35.95
2022-12-25T02:15:12.322Z,27.60
2022-12-25T02:17:23.923Z,32.85
2022-12-25T02:19:40.192Z,30.48
2022-12-25T02:22:00.911Z,36.63
2022-12-25T02:24:16.567Z,30.02
2022-12-25T02:26:30.591Z,33.47
2022-12-25T02:28:45.621Z,30.77
2022-12-25T02:30:58.053Z,27.63
2022-12-25T02:33:17.442Z,32.85
2022-12-25T02:35:27.482Z,32.40
2022-12-25T02:37:36.536Z,38.60
2022-12-25T02:39:58.226Z,35.83
2022-12-25T02:42:05.641Z,42.00
2022-12-25T02:44:37.626Z,34.42
2022-12-25T02:46:54.804Z,42.35
2022-12-25T02:49:13.331Z,36.95
2022-12-25T02:51:31.950Z,41.10
2022-12-25T02:53:50.168Z,38.25
2022-12-25T02:56:07.835Z,39.50
2022-12-25T02:58:27.323Z,41.92
2022-12-25T03:00:48.485Z,38.72
2022-12-25T03:03:07.343Z,38.90
2022-12-25T03:05:27.930Z,42.95
2022-12-25T03:07:36.944Z,39.00
2022-12-25T03:09:57.003Z,37.38
2022-12-25T03:12:02.494Z,35.75
2022-12-25T03:14:20.924Z,43.25
2022-12-25T03:16:40.540Z,41.60
2022-12-25T03:18:45.457Z,42.22
2022-12-25T03:21:02.565Z,36.75
2022-12-25T03:23:19.769Z,45.38
2022-12-25T03:25:36.861Z,37.58
2022-12-25T03:27:42.615Z,37.50
2022-12-25T03:29:59.728Z,34.25
2022-12-25T03:32:14.524Z,37.05
2022-12-25T03:34:41.299Z,38.13
2022-12-25T03:36:55.370Z,34.03
2022-12-25T03:39:17.669Z,40.88
2022-12-25T03:41:50.696Z,38.35
2022-12-25T03:44:09.794Z,33.60
2022-12-25T03:46:29.790Z,46.97
2022-12-25T03:48:52.012Z,37.72
2022-12-25T03:51:13.859Z,36.45
2022-12-25T03:53:35.780Z,38.72
2022-12-25T03:55:53.627Z,37.90
2022-12-25T03:58:10.739Z,37.70
2022-12-25T04:00:28.934Z,38.67
2022-12-25T04:02:46.484Z,32.53
2022-12-25T04:05:06.259Z,38.55
2022-12-25T04:07:23.383Z,40.90
2022-12-25T04:09:40.498Z,34.60
2022-12-25T04:12:02.399Z,35.28
2022-12-25T04:14:19.922Z,38.75
2022-12-25T04:16:36.944Z,31.48
2022-12-25T04:19:03.092Z,33.47
2022-12-25T04:21:22.851Z,27.88
2022-12-25T04:23:40.101Z,27.70
2022-12-25T04:25:57.087Z,33.33
2022-12-25T04:28:16.776Z,28.98
2022-12-25T04:30:33.861Z,29.73
2022-12-25T04:32:50.913Z,30.08
2022-12-25T04:35:07.923Z,25.45
2022-12-25T04:37:15.183Z,29.83
2022-12-25T04:39:20.116Z,30.23
2022-12-25T04:41:24.956Z,26.60
2022-12-25T04:43:30.047Z,25.15
2022-12-25T04:45:34.918Z,23.63
2022-12-25T04:47:39.667Z,30.00
2022-12-25T04:49:44.592Z,29.23
2022-12-25T04:51:49.372Z,24.42
2022-12-25T04:53:56.970Z,33.42
2022-12-25T04:56:01.708Z,25.05
2022-12-25T04:58:06.865Z,23.88
2022-12-25T05:00:12.952Z,26.55
2022-12-25T05:02:17.718Z,23.88
2022-12-25T05:04:22.409Z,28.05
2022-12-25T05:06:27.112Z,22.42
2022-12-25T05:08:32.267Z,26.45
2022-12-25T05:10:42.627Z,25.90
2022-12-25T05:12:47.389Z,24.20
2022-12-25T05:14:52.109Z,21.63
2022-12-25T05:16:56.734Z,27.73
2022-12-25T05:19:01.387Z,26.25
2022-12-25T05:21:07.929Z,22.98
2022-12-25T05:23:13.753Z,24.27
2022-12-25T05:25:18.495Z,19.33
2022-12-25T05:27:25.690Z,20.33
2022-12-25T05:29:32.721Z,23.88
2022-12-25T05:31:37.534Z,19.05
2022-12-25T05:33:42.273Z,17.70
2022-12-25T05:35:46.940Z,20.77
2022-12-25T05:37:51.676Z,22.30
2022-12-25T05:39:56.490Z,19.75
2022-12-25T05:42:01.249Z,17.67
2022-12-25T05:44:08.714Z,19.90
2022-12-25T05:46:14.223Z,18.95
2022-12-25T05:48:19.215Z,20.38
2022-12-25T05:50:24.093Z,20.13
2022-12-25T05:52:28.760Z,19.42
2022-12-25T05:54:35.222Z,17.30
2022-12-25T05:56:40.432Z,20.33
2022-12-25T05:58:42.569Z,16.65
2022-12-25T06:00:50.187Z,22.48
2022-12-25T06:02:55.111Z,17.08
2022-12-25T06:04:59.838Z,27.48
2022-12-25T06:07:04.481Z,19.42
2022-12-25T06:09:06.695Z,21.27
2022-12-25T06:11:12.173Z,22.20
2022-12-25T06:13:16.930Z,21.15
2022-12-25T06:15:21.652Z,20.05
2022-12-25T06:17:33.072Z,24.23
2022-12-25T06:19:37.844Z,22.75
2022-12-25T06:21:42.471Z,18.77
2022-12-25T06:23:47.683Z,18.55
2022-12-25T06:25:52.665Z,17.85
2022-12-25T06:27:57.353Z,17.27
2022-12-25T06:30:02.159Z,18.23
2022-12-25T06:32:07.461Z,14.15
2022-12-25T06:34:16.599Z,14.75
2022-12-25T06:36:22.728Z,13.80
2022-12-25T06:38:27.556Z,18.33
2022-12-25T06:40:32.190Z,16.35
2022-12-25T06:42:36.933Z,14.52
2022-12-25T06:44:41.712Z,13.82
2022-12-25T06:46:46.395Z,17.42
2022-12-25T06:48:51.322Z,15.65
2022-12-25T06:50:58.638Z,12.20
2022-12-25T06:53:03.387Z,14.05
2022-12-25T06:55:09.122Z,12.88
2022-12-25T06:57:13.704Z,14.25
2022-12-25T06:59:18.294Z,16.33
2022-12-25T07:01:25.336Z,16.90
2022-12-25T07:03:31.895Z,14.63
2022-12-25T07:05:36.540Z,18.35
2022-12-25T07:07:43.946Z,15.20
2022-12-25T07:09:48.600Z,14.77
2022-12-25T07:11:53.254Z,14.38
2022-12-25T07:13:57.940Z,14.30
2022-12-25T07:16:03.827Z,18.42
2022-12-25T07:18:08.721Z,14.68
2022-12-25T07:20:13.839Z,15.15
2022-12-25T07:22:19.699Z,13.07
2022-12-25T07:24:27.325Z,16.98
2022-12-25T07:26:31.986Z,12.50
2022-12-25T07:28:37.127Z,16.45
2022-12-25T07:30:41.828Z,12.02
2022-12-25T07:32:50.131Z,13.00
2022-12-25T07:34:55.136Z,12.27
2022-12-25T07:36:59.960Z,13.65
2022-12-25T07:39:04.765Z,11.80
2022-12-25T07:41:14.121Z,11.52
2022-12-25T07:43:18.942Z,12.68
2022-12-25T07:45:23.611Z,14.63
2022-12-25T07:47:28.363Z,11.35
2022-12-25T07:49:33.227Z,15.45
2022-12-25T07:51:38.010Z,12.05
2022-12-25T07:53:42.941Z,12.10
2022-12-25T07:55:47.653Z,14.80
2022-12-25T07:57:55.269Z,12.40
2022-12-25T08:00:00.621Z,14.32
2022-12-25T08:02:05.470Z,12.68
2022-12-25T08:04:11.918Z,14.02
2022-12-25T08:06:16.712Z,10.88
2022-12-25T08:08:21.625Z,14.20
2022-12-25T08:10:26.357Z,13.65
2022-12-25T08:12:31.345Z,13.68
2022-12-25T08:14:38.581Z,12.10
2022-12-25T08:16:43.334Z,13.70
2022-12-25T08:18:48.136Z,13.63
2022-12-25T08:20:52.939Z,15.15
2022-12-25T08:22:57.874Z,13.35
2022-12-25T08:25:02.610Z,14.52
2022-12-25T08:27:07.425Z,17.40
2022-12-25T08:29:12.261Z,13.32
2022-12-25T08:31:22.020Z,11.68
2022-12-25T08:33:26.765Z,13.32
2022-12-25T08:35:31.564Z,11.55
2022-12-25T08:37:36.270Z,12.40
2022-12-25T08:39:40.928Z,12.57
2022-12-25T08:41:45.501Z,13.45
2022-12-25T08:43:50.222Z,15.82
2022-12-25T08:45:54.873Z,11.55
2022-12-25T08:48:02.165Z,12.60
2022-12-25T08:50:07.472Z,11.75
2022-12-25T08:52:14.820Z,12.68
2022-12-25T08:54:19.403Z,11.90
2022-12-25T08:56:24.124Z,11.10
2022-12-25T08:58:30.393Z,12.13
2022-12-25T09:00:35.249Z,13.52
2022-12-25T09:02:40.113Z,15.80
2022-12-25T09:04:48.243Z,17.73
2022-12-25T09:06:53.081Z,18.55
2022-12-25T09:08:57.732Z,17.50
2022-12-25T09:11:04.957Z,20.58
2022-12-25T09:13:09.943Z,15.95
2022-12-25T09:15:14.643Z,18.83
2022-12-25T09:17:19.734Z,22.23
2022-12-25T09:19:24.474Z,19.60
2022-12-25T09:21:31.773Z,20.88
2022-12-25T09:23:37.230Z,19.33
2022-12-25T09:25:41.876Z,17.00
2022-12-25T09:27:46.583Z,18.52
2022-12-25T09:29:51.314Z,23.08
2022-12-25T09:31:56.025Z,20.35
2022-12-25T09:34:01.107Z,23.25
2022-12-25T09:36:07.594Z,19.55
2022-12-25T09:38:14.799Z,15.90
2022-12-25T09:40:21.119Z,19.73
2022-12-25T09:42:28.788Z,18.80
2022-12-25T09:44:36.664Z,20.27
2022-12-25T09:46:44.299Z,15.50
2022-12-25T09:48:54.244Z,15.93
2022-12-25T09:51:02.444Z,18.98
2022-12-25T09:53:10.361Z,14.95
2022-12-25T09:55:21.012Z,16.70
2022-12-25T09:57:28.336Z,17.17
2022-12-25T09:59:33.722Z,18.17
2022-12-25T10:01:44.466Z,19.05
2022-12-25T10:04:01.348Z,18.45
2022-12-25T10:06:19.040Z,18.13
2022-12-25T10:08:35.933Z,18.23
2022-12-25T10:10:53.449Z,15.98
2022-12-25T10:13:06.749Z,18.17
2022-12-25T10:15:21.314Z,15.07
2022-12-25T10:17:36.702Z,16.13
2022-12-25T10:19:46.893Z,15.32
2022-12-25T10:21:52.462Z,20.60
2022-12-25T10:24:05.664Z,16.92
2022-12-25T10:28:28.827Z,15.07
2022-12-25T10:30:35.560Z,16.42
2022-12-25T10:32:40.250Z,16.75
2022-12-25T10:34:45.540Z,21.77
2022-12-25T10:36:50.259Z,17.45
2022-12-25T10:38:55.557Z,18.50
2022-12-25T10:41:11.106Z,18.70
2022-12-25T10:43:20.994Z,19.27
2022-12-25T10:45:28.365Z,20.90
2022-12-25T10:47:34.866Z,19.83
2022-12-25T10:49:41.670Z,18.77
2022-12-25T10:51:46.528Z,19.73
2022-12-25T10:53:51.233Z,21.02
2022-12-25T10:56:03.711Z,19.90
2022-12-25T10:58:08.933Z,21.25
2022-12-25T11:00:23.389Z,18.15
2022-12-25T11:02:33.089Z,22.75
2022-12-25T11:04:38.606Z,17.73
2022-12-25T11:06:43.401Z,20.55
2022-12-25T11:08:54.435Z,21.20
2022-12-25T11:11:06.604Z,22.52
2022-12-25T11:13:24.480Z,19.60
2022-12-25T11:15:37.302Z,19.25
2022-12-25T11:17:51.593Z,22.30
2022-12-25T11:19:57.420Z,17.70
2022-12-25T11:22:03.966Z,23.00
2022-12-25T11:24:18.850Z,21.75
2022-12-25T11:26:23.565Z,17.67
2022-12-25T11:28:28.521Z,17.75
2022-12-25T11:30:34.641Z,19.75
2022-12-25T11:32:46.635Z,17.70
2022-12-25T11:34:52.404Z,19.75
2022-12-25T11:36:57.244Z,18.63
2022-12-25T11:39:04.503Z,20.70
2022-12-25T11:41:09.475Z,21.65
2022-12-25T11:43:18.366Z,18.80
2022-12-25T11:45:27.781Z,21.00
2022-12-25T11:47:38.103Z,19.17
2022-12-25T11:49:50.978Z,19.23
2022-12-25T11:51:58.882Z,19.40
2022-12-25T11:54:06.947Z,19.45
2022-12-25T11:56:13.141Z,20.98
2022-12-25T11:58:20.971Z,20.55
2022-12-25T12:00:26.008Z,21.95
2022-12-25T12:02:37.416Z,20.92
2022-12-25T12:04:47.462Z,24.13
2022-12-25T12:06:57.196Z,22.42
2022-12-25T12:09:08.328Z,24.38
2022-12-25T12:11:19.373Z,20.70
2022-12-25T12:13:34.493Z,22.65
2022-12-25T12:15:44.313Z,20.08
2022-12-25T12:17:49.247Z,21.48
2022-12-25T12:19:56.447Z,19.52
2022-12-25T12:22:02.878Z,20.52
2022-12-25T12:24:09.720Z,17.92
2022-12-25T12:26:21.266Z,19.20
2022-12-25T12:28:27.555Z,19.42
2022-12-25T12:30:37.053Z,22.75
2022-12-25T12:32:44.647Z,24.45
2022-12-25T12:34:50.919Z,19.95
2022-12-25T12:37:02.844Z,24.38
2022-12-25T12:39:08.214Z,21.17
2022-12-25T12:41:14.743Z,21.77
2022-12-25T12:43:30.624Z,25.65
2022-12-25T12:45:37.853Z,24.88
2022-12-25T12:47:46.694Z,21.80
2022-12-25T12:50:00.645Z,19.70
2022-12-25T12:52:10.305Z,24.63
2022-12-25T12:54:23.207Z,26.73
2022-12-25T12:56:27.961Z,36.90
2022-12-25T12:58:35.905Z,25.63
2022-12-25T13:00:49.730Z,26.40
2022-12-25T13:03:14.727Z,34.30
2022-12-25T13:05:26.514Z,39.03
2022-12-25T13:07:46.765Z,23.75
2022-12-25T13:10:03.556Z,21.33
2022-12-25T13:12:10.052Z,21.60
2022-12-25T13:14:19.657Z,27.55
2022-12-25T13:16:28.548Z,25.80
2022-12-25T13:18:33.651Z,29.35
2022-12-25T13:20:47.744Z,22.25
2022-12-25T13:22:55.011Z,27.70
2022-12-25T13:25:00.843Z,27.50
2022-12-25T13:27:23.749Z,27.00
2022-12-25T13:29:35.900Z,23.98
2022-12-25T13:31:40.594Z,21.92
2022-12-25T13:33:48.743Z,27.67
2022-12-25T13:35:53.311Z,26.88
2022-12-25T13:38:01.396Z,27.55
2022-12-25T13:40:09.604Z,30.40
2022-12-25T13:42:15.866Z,24.58
2022-12-25T13:44:23.692Z,25.00
2022-12-25T13:46:29.795Z,26.90
2022-12-25T13:48:35.580Z,27.27
2022-12-25T13:50:45.066Z,28.50
2022-12-25T13:52:49.788Z,27.13
2022-12-25T13:55:02.299Z,26.60
2022-12-25T13:57:11.067Z,27.02
2022-12-25T13:59:18.310Z,29.17
2022-12-25T14:01:23.077Z,25.67
2022-12-25T14:03:36.444Z,30.60
2022-12-25T14:05:43.392Z,32.25
2022-12-25T14:07:53.809Z,26.40
2022-12-25T14:10:04.177Z,28.52
2022-12-25T14:12:14.171Z,28.77
2022-12-25T14:14:24.334Z,26.20
2022-12-25T14:16:31.117Z,28.95
2022-12-25T14:18:35.998Z,26.20
2022-12-25T14:20:43.921Z,28.90
2022-12-25T14:22:53.240Z,28.27
2022-12-25T14:24:57.965Z,32.83
2022-12-25T14:27:07.035Z,31.98
2022-12-25T14:29:19.149Z,36.60
2022-12-25T14:31:26.849Z,33.67
2022-12-25T14:33:34.585Z,31.35
2022-12-25T14:35:39.187Z,28.60
2022-12-25T14:37:45.088Z,28.13
2022-12-25T14:39:57.623Z,32.90
2022-12-25T14:42:13.179Z,32.00
2022-12-25T14:44:36.905Z,29.25
2022-12-25T14:46:44.252Z,32.03
2022-12-25T14:48:48.908Z,30.88
2022-12-25T14:50:58.714Z,27.08
2022-12-25T14:53:06.455Z,31.92
2022-12-25T14:55:22.447Z,32.17
2022-12-25T14:57:37.163Z,30.02
2022-12-25T14:59:41.940Z,27.92
2022-12-25T15:01:46.857Z,31.15
2022-12-25T15:03:51.993Z,31.65
2022-12-25T15:06:04.234Z,28.73
2022-12-25T15:08:24.905Z,33.30
2022-12-25T15:10:58.988Z,29.08
2022-12-25T15:12:58.159Z,28.80
2022-12-25T15:15:02.745Z,29.88
2022-12-25T15:17:07.651Z,27.00
2022-12-25T15:19:21.912Z,33.40
2022-12-25T15:21:36.677Z,31.52
2022-12-25T15:23:41.567Z,27.25
2022-12-25T15:25:47.561Z,33.78
2022-12-25T15:27:52.427Z,31.25
2022-12-25T15:30:10.792Z,27.88
2022-12-25T15:32:20.968Z,30.50
2022-12-25T15:34:25.859Z,34.38
2022-12-25T15:36:31.079Z,28.45
2022-12-25T15:38:39.055Z,34.97
2022-12-25T15:40:46.621Z,29.00
2022-12-25T15:42:56.259Z,29.17
2022-12-25T15:45:04.405Z,29.33
2022-12-25T15:47:10.166Z,34.13
2022-12-25T15:49:15.734Z,30.42
2022-12-25T15:51:20.543Z,31.48
2022-12-25T15:53:27.010Z,34.08
2022-12-25T15:55:34.313Z,35.75
2022-12-25T15:57:39.903Z,44.38
2022-12-25T15:59:44.771Z,42.58
2022-12-25T16:01:53.576Z,38.78
2022-12-25T16:03:58.342Z,32.15
2022-12-25T16:06:03.063Z,38.97
2022-12-25T16:08:09.064Z,35.78
2022-12-25T16:10:17.607Z,29.52
2022-12-25T16:12:22.717Z,31.08
2022-12-25T16:14:27.443Z,32.72
2022-12-25T16:16:32.132Z,28.98
2022-12-25T16:18:47.058Z,32.40
2022-12-25T16:20:52.570Z,34.95
2022-12-25T16:22:57.222Z,42.50
2022-12-25T16:25:01.945Z,33.20
2022-12-25T16:27:06.870Z,31.67
2022-12-25T16:29:11.794Z,27.80
2022-12-25T16:31:19.518Z,31.60
2022-12-25T16:33:24.771Z,36.45
2022-12-25T16:35:32.035Z,32.00
2022-12-25T16:37:37.801Z,28.80
2022-12-25T16:39:42.617Z,29.00
2022-12-25T16:41:47.300Z,30.95
2022-12-25T16:43:52.188Z,38.22
2022-12-25T16:45:57.419Z,33.95
2022-12-25T16:48:02.280Z,30.45
2022-12-25T16:50:08.816Z,32.17
2022-12-25T16:52:16.574Z,29.33
2022-12-25T16:54:21.249Z,30.48
2022-12-25T16:56:28.601Z,31.88
2022-12-25T16:58:34.919Z,31.90
2022-12-25T17:00:42.116Z,31.73
2022-12-25T17:02:50.592Z,34.45
2022-12-25T17:04:55.400Z,37.42
2022-12-25T17:07:00.165Z,38.47
2022-12-25T17:09:07.777Z,41.05
2022-12-25T17:11:12.789Z,38.08
2022-12-25T17:13:17.439Z,36.55
2022-12-25T17:15:22.059Z,36.83
2022-12-25T17:17:26.808Z,37.08
2022-12-25T17:19:31.731Z,44.97
2022-12-25T17:21:38.545Z,41.55
2022-12-25T17:23:45.236Z,39.40
2022-12-25T17:25:52.880Z,41.13
2022-12-25T17:27:57.518Z,42.00
2022-12-25T17:30:02.175Z,42.00
2022-12-25T17:32:06.769Z,45.15
2022-12-25T17:34:11.492Z,45.90
2022-12-25T17:36:19.999Z,45.50
2022-12-25T17:38:24.581Z,37.47
2022-12-25T17:40:29.935Z,48.97
2022-12-25T17:42:37.586Z,40.20
2022-12-25T17:44:42.262Z,40.20
2022-12-25T17:46:47.204Z,40.42
2022-12-25T17:48:52.745Z,40.13
2022-12-25T17:51:03.382Z,44.42
2022-12-25T17:53:08.204Z,37.17
2022-12-25T17:55:13.263Z,35.97
2022-12-25T17:57:17.956Z,41.95
2022-12-25T17:59:29.559Z,39.97
2022-12-25T18:01:34.728Z,40.42
2022-12-25T18:03:39.810Z,46.13
2022-12-25T18:05:45.657Z,40.30
2022-12-25T18:07:50.417Z,44.10
2022-12-25T18:09:55.068Z,37.33
2022-12-25T18:12:00.163Z,33.30
2022-12-25T18:14:06.413Z,32.88
2022-12-25T18:16:15.271Z,36.05
2022-12-25T18:18:20.153Z,41.25
2022-12-25T18:20:25.070Z,36.40
2022-12-25T18:22:29.796Z,37.70
2022-12-25T18:24:34.682Z,38.58
2022-12-25T18:26:39.549Z,34.22
2022-12-25T18:28:45.014Z,38.70
2022-12-25T18:30:50.781Z,40.38
2022-12-25T18:32:58.472Z,38.92
2022-12-25T18:35:03.163Z,40.58
2022-12-25T18:37:07.895Z,36.45
2022-12-25T18:39:13.874Z,38.58
2022-12-25T18:41:18.926Z,41.78
2022-12-25T18:43:52.569Z,39.35
2022-12-25T18:45:48.367Z,44.88
2022-12-25T18:47:53.023Z,39.85
2022-12-25T18:50:00.725Z,43.03
2022-12-25T18:52:47.755Z,34.55
2022-12-25T18:54:32.851Z,41.25
2022-12-25T18:56:37.528Z,34.95
2022-12-25T18:58:42.371Z,37.15
2022-12-25T19:00:47.202Z,38.40
2022-12-25T19:02:52.394Z,38.17
2022-12-25T19:04:59.967Z,36.70
2022-12-25T19:07:04.661Z,36.00
2022-12-25T19:09:11.500Z,37.08
2022-12-25T19:11:16.302Z,39.38
2022-12-25T19:13:21.175Z,34.25
2022-12-25T19:15:25.987Z,37.45
2022-12-25T19:17:32.152Z,29.52
2022-12-25T19:19:40.595Z,38.45
2022-12-25T19:21:48.011Z,42.30
2022-12-25T19:23:52.921Z,40.15
2022-12-25T19:25:57.513Z,40.08
2022-12-25T19:28:02.358Z,40.50
2022-12-25T19:30:08.580Z,42.63
2022-12-25T19:32:13.262Z,45.60
2022-12-25T19:34:18.462Z,49.00
2022-12-25T19:36:23.156Z,49.42
2022-12-25T19:38:30.897Z,51.78
2022-12-25T19:40:39.510Z,49.85
2022-12-25T19:42:44.259Z,45.63
2022-12-25T19:44:48.942Z,42.15
2022-12-25T19:46:53.618Z,43.38
2022-12-25T19:49:04.092Z,48.72
2022-12-25T19:51:17.514Z,47.60
2022-12-25T19:53:23.826Z,48.75
2022-12-25T19:55:31.081Z,49.13
2022-12-25T19:57:35.742Z,46.17
2022-12-25T19:59:40.448Z,45.97
2022-12-25T20:01:45.457Z,49.50
2022-12-25T20:03:51.301Z,51.83
2022-12-25T20:05:55.902Z,47.17
2022-12-25T20:08:00.583Z,46.10
2022-12-25T20:10:05.499Z,50.50
2022-12-25T20:12:15.092Z,41.75
2022-12-25T20:14:20.168Z,41.67
2022-12-25T20:16:25.004Z,42.00
2022-12-25T20:18:29.850Z,45.95
2022-12-25T20:20:34.991Z,47.83
2022-12-25T20:22:39.738Z,46.13
2022-12-25T20:24:44.656Z,45.83
2022-12-25T20:26:53.728Z,41.88
2022-12-25T20:29:04.572Z,42.75
2022-12-25T20:31:09.995Z,48.22
2022-12-25T20:33:14.743Z,57.38
2022-12-25T20:35:19.633Z,56.33
2022-12-25T20:37:24.316Z,51.72
2022-12-25T20:39:30.543Z,46.10
2022-12-25T20:41:35.264Z,45.60
2022-12-25T20:43:45.352Z,46.40
2022-12-25T20:45:54.362Z,45.15
2022-12-25T20:47:58.981Z,51.97
2022-12-25T20:50:03.647Z,52.55
2022-12-25T20:52:08.568Z,51.13
2022-12-25T20:54:15.021Z,56.58
2022-12-25T20:56:21.805Z,47.53
2022-12-25T20:58:26.572Z,51.45
2022-12-25T21:00:31.152Z,49.28
2022-12-25T21:02:38.855Z,50.55
2022-12-25T21:04:46.643Z,46.50
2022-12-25T21:06:55.362Z,50.67
2022-12-25T21:09:00.120Z,47.15
2022-12-25T21:11:05.627Z,47.30
2022-12-25T21:13:10.336Z,45.30
2022-12-25T21:15:15.902Z,47.90
2022-12-25T21:17:20.865Z,45.30
2022-12-25T21:19:28.233Z,42.35
2022-12-25T21:21:32.932Z,40.80
2022-12-25T21:23:39.027Z,44.00
2022-12-25T21:25:43.840Z,42.65
2022-12-25T21:27:48.670Z,40.83
2022-12-25T21:29:53.375Z,35.70
2022-12-25T21:32:10.432Z,31.08
2022-12-25T21:34:15.132Z,33.30
2022-12-25T21:36:24.125Z,27.73
2022-12-25T21:38:28.788Z,29.58
2022-12-25T21:40:36.019Z,26.17
2022-12-25T21:42:40.709Z,30.63
2022-12-25T21:44:45.483Z,28.25
2022-12-25T21:46:50.335Z,27.98
2022-12-25T21:48:55.231Z,28.08
2022-12-25T21:51:16.874Z,28.10
2022-12-25T21:53:24.905Z,30.33
2022-12-25T21:55:29.501Z,29.85
2022-12-25T21:57:34.337Z,27.23
2022-12-25T21:59:39.196Z,28.17
2022-12-25T22:01:43.938Z,24.83
2022-12-25T22:03:48.923Z,23.70
2022-12-25T22:06:05.965Z,22.67
2022-12-25T22:08:10.671Z,27.80
2022-12-25T22:10:18.142Z,27.75
2022-12-25T22:12:36.282Z,26.52
2022-12-25T22:14:54.165Z,24.20
2022-12-25T22:17:11.649Z,22.35
2022-12-25T22:19:28.720Z,26.77
2022-12-25T22:21:33.533Z,27.20
2022-12-25T22:23:38.234Z,26.83
2022-12-25T22:25:45.362Z,27.02
2022-12-25T22:27:51.028Z,27.95
2022-12-25T22:29:55.831Z,27.73
2022-12-25T22:32:00.560Z,26.75
2022-12-25T22:34:05.617Z,27.60
2022-12-25T22:36:11.992Z,28.42
2022-12-25T22:38:16.601Z,30.08
2022-12-25T22:40:22.296Z,28.60
2022-12-25T22:42:29.557Z,26.92
2022-12-25T22:44:36.028Z,30.92
2022-12-25T22:46:40.729Z,30.85
2022-12-25T22:48:45.587Z,30.90
2022-12-25T22:50:50.307Z,30.30
2022-12-25T22:52:54.902Z,30.20
2022-12-25T22:54:59.660Z,32.20
2022-12-25T22:57:04.380Z,29.40
2022-12-25T22:59:11.904Z,37.60
2022-12-25T23:01:17.215Z,30.52
2022-12-25T23:03:21.981Z,32.97
2022-12-25T23:05:27.304Z,35.40
2022-12-25T23:07:32.104Z,36.30
2022-12-25T23:09:37.220Z,34.95
2022-12-25T23:11:41.905Z,39.42
2022-12-25T23:13:59.400Z,39.60
2022-12-25T23:16:07.097Z,33.78
2022-12-25T23:18:24.342Z,38.97
2022-12-25T23:20:41.536Z,35.58
2022-12-25T23:22:58.921Z,28.48
2022-12-25T23:25:16.044Z,33.00
2022-12-25T23:27:20.853Z,33.40
2022-12-25T23:29:40.293Z,31.10
2022-12-25T23:31:53.902Z,37.20
2022-12-25T23:33:58.768Z,32.08
2022-12-25T23:36:03.505Z,30.55
2022-12-25T23:38:08.434Z,32.13
2022-12-25T23:40:14.371Z,34.05
2022-12-25T23:42:19.215Z,35.00
2022-12-25T23:44:24.329Z,32.00
2022-12-25T23:46:29.051Z,39.25
2022-12-25T23:48:36.523Z,35.72
2022-12-25T23:50:41.172Z,32.95
2022-12-25T23:52:45.817Z,35.78
2022-12-25T23:54:50.371Z,30.33
2022-12-25T23:56:57.292Z,30.50
2022-12-25T23:59:02.047Z,34.13
